Time;durP1;ratioP1;P1;durP2;ratioP2;P2;SDS_P1;SDS_P2;PMS_P1;PMS_P2;Temp;Humidity;BMP_temperature;BMP_pressure;BME280_temperature;BME280_humidity;BME280_pressure;Samples;Min_cycle;Max_cycle;Signal;HPM_P1;HPM_P2
2023/09/07 00:00:11;;;;;;;;;;;26.80;67.40;;;;;;5095000;28;19973;-55
2023/09/07 00:02:37;;;;;;;;;;;26.80;67.30;;;;;;5093912;28;19985;-55
2023/09/07 00:05:03;;;;;;;;;;;26.80;67.30;;;;;;5092656;28;19912;-55
2023/09/07 00:07:29;;;;;;;;;;;26.70;67.30;;;;;;5094994;28;20303;-55
2023/09/07 00:09:54;;;;;;;;;;;26.70;67.40;;;;;;5094818;28;19908;-56
2023/09/07 00:12:20;;;;;;;;;;;26.70;67.60;;;;;;5094866;28;19912;-55
2023/09/07 00:14:46;;;;;;;;;;;26.70;67.40;;;;;;5077733;28;19913;-56
2023/09/07 00:17:11;;;;;;;;;;;26.70;67.30;;;;;;5074644;28;19908;-55
2023/09/07 00:19:36;;;;;;;;;;;26.70;67.30;;;;;;5086021;28;19919;-55
2023/09/07 00:22:03;;;;;;;;;;;26.70;67.40;;;;;;5094605;28;20360;-55
2023/09/07 00:24:28;;;;;;;;;;;26.70;67.30;;;;;;5093088;28;19915;-55
2023/09/07 00:26:54;;;;;;;;;;;26.70;67.30;;;;;;5073619;28;20014;-57
2023/09/07 00:29:19;;;;;;;;;;;26.70;67.40;;;;;;5074186;28;19919;-56
2023/09/07 00:31:44;;;;;;;;;;;26.70;67.50;;;;;;5074154;28;20011;-56
2023/09/07 00:34:10;;;;;;;;;;;26.70;67.40;;;;;;5077824;28;19919;-55
2023/09/07 00:36:36;;;;;;;;;;;26.70;67.50;;;;;;5094454;28;19908;-55
2023/09/07 00:39:02;;;;;;;;;;;26.70;67.40;;;;;;5094403;28;19918;-55
2023/09/07 00:41:27;;;;;;;;;;;26.70;67.50;;;;;;5094313;28;20015;-55
2023/09/07 00:43:53;;;;;;;;;;;26.70;67.70;;;;;;5092845;28;19913;-56
2023/09/07 00:46:18;;;;;;;;;;;26.70;67.50;;;;;;5094185;28;19937;-55
2023/09/07 00:48:44;;;;;;;;;;;26.60;67.60;;;;;;5090531;28;19908;-55
2023/09/07 00:51:09;;;;;;;;;;;26.70;67.50;;;;;;5093814;28;19995;-55
2023/09/07 00:53:35;;;;;;;;;;;26.60;67.60;;;;;;5094094;28;20034;-55
2023/09/07 00:56:00;;;;;;;;;;;26.60;67.50;;;;;;5078489;28;19913;-55
2023/09/07 00:58:26;;;;;;;;;;;26.60;67.40;;;;;;5072489;28;19909;-55
2023/09/07 01:00:51;;;;;;;;;;;26.60;67.50;;;;;;5073521;28;19919;-55
2023/09/07 01:03:16;;;;;;;;;;;26.60;67.40;;;;;;5073669;28;20348;-56
2023/09/07 01:05:44;;;;;;;;;;;26.60;67.60;;;;;;5087974;28;20359;-55
2023/09/07 01:08:19;;;;;;;;;;;26.60;67.50;;;;;;5093801;28;19919;-55
2023/09/07 01:10:45;;;;;;;;;;;26.60;67.40;;;;;;5093732;28;19912;-55
2023/09/07 01:13:10;;;;;;;;;;;26.60;67.50;;;;;;5092078;28;19964;-56
2023/09/07 01:15:36;;;;;;;;;;;26.60;67.50;;;;;;5093693;28;19915;-55
2023/09/07 01:18:02;;;;;;;;;;;26.60;67.60;;;;;;5093628;28;19912;-56
2023/09/07 01:20:27;;;;;;;;;;;26.60;67.40;;;;;;5091218;28;19916;-56
2023/09/07 01:22:52;;;;;;;;;;;26.60;67.60;;;;;;5093585;28;19916;-55
2023/09/07 01:25:18;;;;;;;;;;;26.60;67.30;;;;;;5084764;28;20058;-56
2023/09/07 01:27:43;;;;;;;;;;;26.60;67.70;;;;;;5073351;28;19927;-55
2023/09/07 01:30:10;;;;;;;;;;;26.50;67.60;;;;;;5081720;28;20410;-56
2023/09/07 01:32:36;;;;;;;;;;;26.60;67.30;;;;;;5067663;28;20006;-55
2023/09/07 01:35:01;;;;;;;;;;;26.60;67.40;;;;;;5072308;28;20012;-55
2023/09/07 01:37:26;;;;;;;;;;;26.60;67.60;;;;;;5072225;28;20272;-55
2023/09/07 01:39:52;;;;;;;;;;;26.60;67.40;;;;;;5073015;28;19952;-55
2023/09/07 01:42:17;;;;;;;;;;;26.50;67.30;;;;;;5083318;28;19916;-56
2023/09/07 01:44:43;;;;;;;;;;;26.50;67.60;;;;;;5092843;28;19908;-55
2023/09/07 01:47:08;;;;;;;;;;;26.50;67.30;;;;;;5092086;28;19912;-56
2023/09/07 01:49:34;;;;;;;;;;;26.50;67.20;;;;;;5091256;28;20371;-55
2023/09/07 01:51:59;;;;;;;;;;;26.50;67.50;;;;;;5093326;28;20768;-55
2023/09/07 01:54:25;;;;;;;;;;;26.50;67.20;;;;;;5089120;28;19961;-55
2023/09/07 01:56:50;;;;;;;;;;;26.50;67.60;;;;;;5073262;28;19908;-56
2023/09/07 01:59:15;;;;;;;;;;;26.50;67.60;;;;;;5072945;28;19913;-56
2023/09/07 02:01:41;;;;;;;;;;;26.40;67.00;;;;;;5072655;28;19919;-55
2023/09/07 02:04:06;;;;;;;;;;;26.50;67.50;;;;;;5076825;28;19919;-55
2023/09/07 02:06:32;;;;;;;;;;;26.50;67.10;;;;;;5092995;28;19991;-55
2023/09/07 02:08:57;;;;;;;;;;;26.50;67.40;;;;;;5093030;28;19962;-55
2023/09/07 02:11:23;;;;;;;;;;;26.50;67.30;;;;;;5093069;28;19912;-55
2023/09/07 02:13:48;;;;;;;;;;;26.50;67.40;;;;;;5088876;28;19919;-55
2023/09/07 02:16:14;;;;;;;;;;;26.50;67.20;;;;;;5072779;28;20254;-56
2023/09/07 02:18:46;;;;;;;;;;;26.40;67.40;;;;;;5072136;28;19909;-55
2023/09/07 02:21:12;;;;;;;;;;;26.40;67.60;;;;;;5092944;28;19912;-55
2023/09/07 02:23:37;;;;;;;;;;;26.40;67.30;;;;;;5092955;28;20384;-56
2023/09/07 02:26:03;;;;;;;;;;;26.40;67.10;;;;;;5080984;28;19915;-56
2023/09/07 02:28:29;;;;;;;;;;;26.40;67.50;;;;;;5092957;28;19916;-55
2023/09/07 02:30:54;;;;;;;;;;;26.40;67.30;;;;;;5092721;28;20481;-55
2023/09/07 02:33:20;;;;;;;;;;;26.40;67.50;;;;;;5092914;28;19908;-55
2023/09/07 02:35:47;;;;;;;;;;;26.40;67.20;;;;;;5088055;28;20303;-56
2023/09/07 02:38:13;;;;;;;;;;;26.40;67.30;;;;;;5092764;28;19908;-55
2023/09/07 02:40:42;;;;;;;;;;;26.40;67.10;;;;;;5092587;28;20284;-54
2023/09/07 02:43:07;;;;;;;;;;;26.40;67.30;;;;;;5092753;28;20275;-55
2023/09/07 02:45:33;;;;;;;;;;;26.40;67.20;;;;;;5087417;28;20361;-56
2023/09/07 02:47:59;;;;;;;;;;;26.40;67.50;;;;;;5072417;28;19916;-55
2023/09/07 02:50:24;;;;;;;;;;;26.40;67.50;;;;;;5082068;28;19920;-55
2023/09/07 02:52:50;;;;;;;;;;;26.40;67.10;;;;;;5091427;28;19914;-55
2023/09/07 02:55:15;;;;;;;;;;;26.40;67.00;;;;;;5084283;28;19915;-55
2023/09/07 02:57:40;;;;;;;;;;;26.40;67.40;;;;;;5075390;28;19915;-55
2023/09/07 03:00:09;;;;;;;;;;;26.40;67.50;;;;;;5075239;28;19948;-56
2023/09/07 03:02:35;;;;;;;;;;;26.30;67.10;;;;;;5075913;28;20295;-55
2023/09/07 03:05:01;;;;;;;;;;;26.30;67.50;;;;;;5080098;28;19916;-56
2023/09/07 03:07:29;;;;;;;;;;;26.30;67.00;;;;;;5094047;28;19969;-55
2023/09/07 03:09:54;;;;;;;;;;;26.30;67.10;;;;;;5096171;28;19931;-56
2023/09/07 03:12:20;;;;;;;;;;;26.30;67.40;;;;;;5096010;28;20356;-57
2023/09/07 03:14:45;;;;;;;;;;;26.30;66.90;;;;;;5090541;28;19997;-55
2023/09/07 03:17:11;;;;;;;;;;;26.30;67.00;;;;;;5095964;28;20201;-55
2023/09/07 03:19:37;;;;;;;;;;;26.30;67.00;;;;;;5093658;28;20390;-55
2023/09/07 03:22:03;;;;;;;;;;;26.30;66.90;;;;;;5095738;28;19920;-55
2023/09/07 03:24:28;;;;;;;;;;;26.30;67.20;;;;;;5092775;28;20275;-55
2023/09/07 03:26:54;;;;;;;;;;;26.30;67.30;;;;;;5075527;28;20337;-55
2023/09/07 03:29:20;;;;;;;;;;;26.20;67.00;;;;;;5075519;28;19909;-55
2023/09/07 03:31:45;;;;;;;;;;;26.20;67.00;;;;;;5091722;28;20002;-56
2023/09/07 03:34:10;;;;;;;;;;;26.20;66.70;;;;;;5095649;28;19908;-56
2023/09/07 03:36:36;;;;;;;;;;;26.20;67.10;;;;;;5093187;28;20268;-55
2023/09/07 03:39:01;;;;;;;;;;;26.20;67.10;;;;;;5095283;28;19912;-55
2023/09/07 03:41:30;;;;;;;;;;;26.20;67.10;;;;;;5094601;28;19961;-56
2023/09/07 03:43:56;;;;;;;;;;;26.20;66.80;;;;;;5091976;28;19957;-56
2023/09/07 03:46:21;;;;;;;;;;;26.20;67.20;;;;;;5092930;28;19908;-55
2023/09/07 03:48:47;;;;;;;;;;;26.20;67.00;;;;;;5089217;28;20325;-55
2023/09/07 03:51:13;;;;;;;;;;;26.20;67.00;;;;;;5092961;28;20398;-55
2023/09/07 03:53:38;;;;;;;;;;;26.20;66.90;;;;;;5095184;28;20403;-55
2023/09/07 03:56:04;;;;;;;;;;;26.20;66.90;;;;;;5078639;28;19952;-55
2023/09/07 03:58:29;;;;;;;;;;;26.20;67.10;;;;;;5088846;28;19916;-55
2023/09/07 04:00:55;;;;;;;;;;;26.20;67.20;;;;;;5091579;28;19916;-56
2023/09/07 04:03:20;;;;;;;;;;;26.20;67.30;;;;;;5093723;28;19908;-55
2023/09/07 04:05:46;;;;;;;;;;;26.10;67.10;;;;;;5092932;28;19918;-55
2023/09/07 04:08:11;;;;;;;;;;;26.20;67.30;;;;;;5094901;28;19939;-55
2023/09/07 04:10:37;;;;;;;;;;;26.20;67.20;;;;;;5090833;28;19913;-55
2023/09/07 04:13:03;;;;;;;;;;;26.20;66.90;;;;;;5089014;28;19912;-55
2023/09/07 04:15:31;;;;;;;;;;;26.20;67.30;;;;;;5093678;28;20037;-55
2023/09/07 04:17:56;;;;;;;;;;;26.10;67.20;;;;;;5089795;28;19913;-57
2023/09/07 04:20:22;;;;;;;;;;;26.10;66.80;;;;;;5093360;28;20261;-55
2023/09/07 04:22:47;;;;;;;;;;;26.10;67.20;;;;;;5092231;28;19930;-55
2023/09/07 04:25:13;;;;;;;;;;;26.10;66.80;;;;;;5086525;28;19944;-55
2023/09/07 04:27:38;;;;;;;;;;;26.10;66.90;;;;;;5074344;28;19915;-56
2023/09/07 04:30:04;;;;;;;;;;;26.10;67.10;;;;;;5074113;28;19991;-55
2023/09/07 04:32:29;;;;;;;;;;;26.10;67.00;;;;;;5088110;28;19916;-55
2023/09/07 04:34:55;;;;;;;;;;;26.10;67.00;;;;;;5094419;28;19961;-55
2023/09/07 04:37:21;;;;;;;;;;;26.10;66.90;;;;;;5091972;28;19919;-56
2023/09/07 04:39:49;;;;;;;;;;;26.10;67.00;;;;;;5091561;28;19912;-55
2023/09/07 04:42:14;;;;;;;;;;;26.10;66.90;;;;;;5094301;28;19912;-56
2023/09/07 04:44:40;;;;;;;;;;;26.00;67.00;;;;;;5086619;28;19913;-55
2023/09/07 04:47:05;;;;;;;;;;;26.00;66.90;;;;;;5073546;28;19909;-55
2023/09/07 04:49:31;;;;;;;;;;;26.00;67.00;;;;;;5074004;28;19995;-55
2023/09/07 04:51:56;;;;;;;;;;;26.00;66.90;;;;;;5081623;28;19921;-56
2023/09/07 04:54:22;;;;;;;;;;;26.00;67.00;;;;;;5093200;28;20057;-55
2023/09/07 04:56:47;;;;;;;;;;;26.00;67.20;;;;;;5072639;28;19940;-56
2023/09/07 04:59:13;;;;;;;;;;;26.00;66.90;;;;;;5091028;28;20295;-55
2023/09/07 05:01:38;;;;;;;;;;;26.00;67.00;;;;;;5093647;28;19959;-55
2023/09/07 05:04:04;;;;;;;;;;;26.00;67.00;;;;;;5093847;28;19909;-56
2023/09/07 05:06:29;;;;;;;;;;;26.00;66.80;;;;;;5090183;28;19916;-55
2023/09/07 05:08:55;;;;;;;;;;;26.00;67.00;;;;;;5093665;28;19909;-55
2023/09/07 05:11:20;;;;;;;;;;;26.00;66.90;;;;;;5093701;28;19986;-56
2023/09/07 05:13:46;;;;;;;;;;;26.00;66.80;;;;;;5093405;28;19961;-55
2023/09/07 05:16:11;;;;;;;;;;;25.90;66.70;;;;;;5090260;28;19912;-55
2023/09/07 05:18:37;;;;;;;;;;;26.00;66.70;;;;;;5092995;28;20328;-55
2023/09/07 05:21:10;;;;;;;;;;;26.00;66.90;;;;;;5090110;28;20376;-56
2023/09/07 05:23:36;;;;;;;;;;;26.00;66.70;;;;;;5100219;28;19912;-55
2023/09/07 05:26:01;;;;;;;;;;;26.00;66.70;;;;;;5083021;28;20410;-55
2023/09/07 05:28:27;;;;;;;;;;;26.00;66.70;;;;;;5093389;28;19998;-56
2023/09/07 05:30:52;;;;;;;;;;;26.00;66.50;;;;;;5093341;28;19908;-55
2023/09/07 05:33:18;;;;;;;;;;;26.00;66.70;;;;;;5093224;28;20368;-55
2023/09/07 05:35:45;;;;;;;;;;;25.90;66.60;;;;;;5088600;28;20276;-55
2023/09/07 05:38:11;;;;;;;;;;;26.00;66.70;;;;;;5077855;28;19916;-55
2023/09/07 05:40:45;;;;;;;;;;;25.90;67.60;;;;;;5075248;28;19969;-55
2023/09/07 05:43:11;;;;;;;;;;;25.90;66.70;;;;;;5092306;28;19908;-55
2023/09/07 05:45:38;;;;;;;;;;;25.90;66.80;;;;;;5088860;28;20002;-56
2023/09/07 05:48:03;;;;;;;;;;;25.90;66.80;;;;;;5090879;28;19916;-55
2023/09/07 05:50:29;;;;;;;;;;;25.90;66.90;;;;;;5091706;28;19923;-54
2023/09/07 05:52:54;;;;;;;;;;;25.90;66.70;;;;;;5091092;28;20296;-55
2023/09/07 05:55:20;;;;;;;;;;;25.90;66.80;;;;;;5084280;28;19913;-55
2023/09/07 05:57:46;;;;;;;;;;;25.90;66.80;;;;;;5087343;28;20364;-55
2023/09/07 06:00:12;;;;;;;;;;;25.90;66.90;;;;;;5092913;28;19912;-56
2023/09/07 06:02:38;;;;;;;;;;;25.90;66.80;;;;;;5092927;28;19940;-55
2023/09/07 06:05:03;;;;;;;;;;;25.90;66.90;;;;;;5093113;28;19965;-56
2023/09/07 06:07:29;;;;;;;;;;;25.90;66.90;;;;;;5091102;28;20399;-55
2023/09/07 06:09:54;;;;;;;;;;;25.90;66.90;;;;;;5090301;28;20303;-56
2023/09/07 06:12:20;;;;;;;;;;;25.90;67.00;;;;;;5089529;28;19999;-55
2023/09/07 06:14:46;;;;;;;;;;;25.90;66.90;;;;;;5089728;28;19912;-55
2023/09/07 06:17:11;;;;;;;;;;;25.80;66.90;;;;;;5092895;28;19912;-55
2023/09/07 06:19:37;;;;;;;;;;;25.90;66.90;;;;;;5092755;28;19915;-55
2023/09/07 06:22:02;;;;;;;;;;;25.80;67.20;;;;;;5083210;28;19920;-55
2023/09/07 06:24:28;;;;;;;;;;;25.80;66.90;;;;;;5091114;28;20352;-55
2023/09/07 06:26:53;;;;;;;;;;;25.80;67.00;;;;;;5072337;28;19915;-56
2023/09/07 06:29:19;;;;;;;;;;;25.90;67.00;;;;;;5083660;28;19912;-57
2023/09/07 06:31:44;;;;;;;;;;;25.80;66.90;;;;;;5075738;28;19958;-55
2023/09/07 06:34:10;;;;;;;;;;;25.80;67.00;;;;;;5076437;28;20012;-56
2023/09/07 06:36:35;;;;;;;;;;;25.80;67.00;;;;;;5078635;28;19908;-55
2023/09/07 06:39:00;;;;;;;;;;;25.80;66.90;;;;;;5096476;28;19919;-56
2023/09/07 06:41:27;;;;;;;;;;;25.80;67.80;;;;;;5096299;28;19955;-56
2023/09/07 06:43:52;;;;;;;;;;;25.80;66.80;;;;;;5096445;28;19915;-55
2023/09/07 06:46:18;;;;;;;;;;;25.80;67.60;;;;;;5094872;28;19908;-55
2023/09/07 06:48:43;;;;;;;;;;;25.80;67.00;;;;;;5096293;28;19928;-55
2023/09/07 06:51:09;;;;;;;;;;;25.80;67.10;;;;;;5096030;28;20140;-55
2023/09/07 06:53:34;;;;;;;;;;;25.80;67.10;;;;;;5093852;28;19919;-55
2023/09/07 06:56:00;;;;;;;;;;;25.80;67.00;;;;;;5081385;28;19912;-55
2023/09/07 06:58:26;;;;;;;;;;;25.80;67.10;;;;;;5073757;28;20015;-55
2023/09/07 07:00:51;;;;;;;;;;;25.80;67.10;;;;;;5091324;28;20006;-55
2023/09/07 07:03:16;;;;;;;;;;;25.70;66.90;;;;;;5095903;28;19908;-55
2023/09/07 07:05:42;;;;;;;;;;;25.70;67.00;;;;;;5093296;28;20074;-55
2023/09/07 07:08:07;;;;;;;;;;;25.80;67.00;;;;;;5091041;28;19919;-55
2023/09/07 07:10:33;;;;;;;;;;;25.80;67.00;;;;;;5095921;28;19908;-56
2023/09/07 07:12:59;;;;;;;;;;;25.80;67.00;;;;;;5094382;28;19919;-55
2023/09/07 07:15:25;;;;;;;;;;;25.80;66.80;;;;;;5095654;28;20341;-55
2023/09/07 07:17:50;;;;;;;;;;;25.80;67.10;;;;;;5092807;28;19913;-55
2023/09/07 07:20:16;;;;;;;;;;;25.80;67.10;;;;;;5079222;28;20003;-55
2023/09/07 07:22:41;;;;;;;;;;;25.80;67.00;;;;;;5081135;28;19935;-57
2023/09/07 07:25:07;;;;;;;;;;;25.80;67.00;;;;;;5088056;28;19967;-55
2023/09/07 07:27:32;;;;;;;;;;;25.70;67.00;;;;;;5080044;28;19919;-55
2023/09/07 07:29:58;;;;;;;;;;;25.80;67.00;;;;;;5095781;28;19908;-55
2023/09/07 07:32:23;;;;;;;;;;;25.70;66.80;;;;;;5095495;28;20440;-55
2023/09/07 07:34:49;;;;;;;;;;;25.80;67.00;;;;;;5095436;28;19908;-55
2023/09/07 07:37:14;;;;;;;;;;;25.80;66.80;;;;;;5092755;28;19955;-55
2023/09/07 07:39:40;;;;;;;;;;;25.80;66.90;;;;;;5095315;28;19908;-55
2023/09/07 07:42:06;;;;;;;;;;;25.80;66.70;;;;;;5094542;28;20347;-55
2023/09/07 07:44:31;;;;;;;;;;;25.80;66.80;;;;;;5095405;28;19990;-55
2023/09/07 07:46:56;;;;;;;;;;;25.80;66.80;;;;;;5095223;28;19957;-55
2023/09/07 07:49:22;;;;;;;;;;;25.80;66.70;;;;;;5093059;28;19912;-55
2023/09/07 07:51:47;;;;;;;;;;;25.80;67.00;;;;;;5094993;28;20279;-55
2023/09/07 07:54:13;;;;;;;;;;;25.70;66.70;;;;;;5092863;28;20260;-56
2023/09/07 07:56:39;;;;;;;;;;;25.70;66.60;;;;;;5075171;28;19915;-55
2023/09/07 07:59:04;;;;;;;;;;;25.70;66.60;;;;;;5074320;28;19970;-55
2023/09/07 08:01:29;;;;;;;;;;;25.80;66.60;;;;;;5074356;28;19963;-56
2023/09/07 08:03:55;;;;;;;;;;;25.80;66.60;;;;;;5074673;28;19962;-57
2023/09/07 08:06:20;;;;;;;;;;;25.70;66.60;;;;;;5074752;28;19991;-55
2023/09/07 08:08:46;;;;;;;;;;;25.80;66.50;;;;;;5084320;28;19956;-55
2023/09/07 08:11:11;;;;;;;;;;;25.80;66.40;;;;;;5094730;28;19999;-56
2023/09/07 08:13:37;;;;;;;;;;;25.90;66.40;;;;;;5094650;28;20265;-55
2023/09/07 08:16:03;;;;;;;;;;;25.90;66.40;;;;;;5094736;28;19961;-55
2023/09/07 08:18:28;;;;;;;;;;;25.90;66.20;;;;;;5093291;28;19912;-55
2023/09/07 08:20:55;;;;;;;;;;;26.00;66.10;;;;;;5094723;28;20391;-54
2023/09/07 08:23:21;;;;;;;;;;;26.00;65.90;;;;;;5092248;28;19923;-56
2023/09/07 08:25:46;;;;;;;;;;;26.00;66.10;;;;;;5081682;28;19961;-55
2023/09/07 08:28:12;;;;;;;;;;;26.00;65.80;;;;;;5074484;28;19913;-55
2023/09/07 08:30:37;;;;;;;;;;;26.00;65.80;;;;;;5080225;28;19912;-56
2023/09/07 08:33:05;;;;;;;;;;;26.10;66.20;;;;;;5094280;28;19912;-55
2023/09/07 08:35:35;;;;;;;;;;;26.10;65.70;;;;;;5094442;28;19918;-55
2023/09/07 08:38:08;;;;;;;;;;;26.20;65.90;;;;;;5092014;28;19913;-55
2023/09/07 08:40:34;;;;;;;;;;;26.20;65.90;;;;;;5100933;28;19991;-55
2023/09/07 08:43:01;;;;;;;;;;;26.20;65.70;;;;;;5094074;28;19965;-56
2023/09/07 08:45:28;;;;;;;;;;;26.20;65.60;;;;;;5094128;28;19966;-56
2023/09/07 08:47:53;;;;;;;;;;;26.20;65.30;;;;;;5091675;28;20014;-55
2023/09/07 08:50:19;;;;;;;;;;;26.30;65.40;;;;;;5093713;28;19999;-55
2023/09/07 08:52:45;;;;;;;;;;;26.30;65.10;;;;;;5093838;28;19908;-55
2023/09/07 08:55:11;;;;;;;;;;;26.30;65.10;;;;;;5083350;28;19917;-55
2023/09/07 08:57:36;;;;;;;;;;;26.30;65.20;;;;;;5089873;28;20288;-55
2023/09/07 09:00:07;;;;;;;;;;;26.40;65.00;;;;;;5094154;28;19912;-55
2023/09/07 09:02:32;;;;;;;;;;;26.40;64.70;;;;;;5100518;28;20102;-55
2023/09/07 09:04:58;;;;;;;;;;;26.50;64.70;;;;;;5093641;28;20391;-55
2023/09/07 09:07:23;;;;;;;;;;;26.50;64.80;;;;;;5090245;28;20248;-55
2023/09/07 09:09:49;;;;;;;;;;;26.50;64.90;;;;;;5091027;28;20279;-55
2023/09/07 09:12:15;;;;;;;;;;;26.50;64.70;;;;;;5093685;28;19915;-55
2023/09/07 09:14:44;;;;;;;;;;;26.50;64.20;;;;;;5093555;28;19912;-57
2023/09/07 09:17:13;;;;;;;;;;;26.60;64.00;;;;;;5092377;28;19908;-55
2023/09/07 09:19:39;;;;;;;;;;;26.60;64.10;;;;;;5084642;28;20341;-55
2023/09/07 09:22:04;;;;;;;;;;;26.60;64.00;;;;;;5072242;28;20000;-55
2023/09/07 09:24:34;;;;;;;;;;;26.60;63.80;;;;;;5080848;28;20372;-55
2023/09/07 09:26:59;;;;;;;;;;;26.60;63.70;;;;;;5071175;28;20059;-55
2023/09/07 09:29:25;;;;;;;;;;;26.60;63.00;;;;;;5073183;28;19955;-55
2023/09/07 09:31:51;;;;;;;;;;;26.70;62.60;;;;;;5073223;28;19908;-55
2023/09/07 09:34:17;;;;;;;;;;;26.70;62.80;;;;;;5072475;28;19917;-56
2023/09/07 09:36:43;;;;;;;;;;;26.80;63.00;;;;;;5073191;28;19931;-56
2023/09/07 09:39:09;;;;;;;;;;;26.90;63.00;;;;;;5084124;28;20283;-55
2023/09/07 09:41:34;;;;;;;;;;;26.90;62.60;;;;;;5093243;28;19998;-55
2023/09/07 09:44:01;;;;;;;;;;;26.90;62.30;;;;;;5087969;28;19923;-56
2023/09/07 09:46:27;;;;;;;;;;;27.00;62.10;;;;;;5093232;28;20319;-56
2023/09/07 09:48:53;;;;;;;;;;;27.00;61.70;;;;;;5078403;28;20004;-56
2023/09/07 09:51:18;;;;;;;;;;;26.90;62.00;;;;;;5072809;28;20353;-55
2023/09/07 09:53:44;;;;;;;;;;;26.90;62.00;;;;;;5079248;28;19981;-56
2023/09/07 09:56:09;;;;;;;;;;;27.00;61.30;;;;;;5077514;28;19921;-55
2023/09/07 09:58:35;;;;;;;;;;;27.00;61.10;;;;;;5092966;28;19915;-56
2023/09/07 10:01:00;;;;;;;;;;;26.90;61.80;;;;;;5093138;28;19996;-55
2023/09/07 10:03:32;;;;;;;;;;;27.00;61.70;;;;;;5090176;28;20003;-55
2023/09/07 10:06:10;;;;;;;;;;;27.10;60.60;;;;;;5092287;28;19908;-55
2023/09/07 10:08:35;;;;;;;;;;;27.20;60.70;;;;;;5085369;28;19919;-55
2023/09/07 10:11:06;;;;;;;;;;;27.10;61.40;;;;;;5098341;28;19912;-56
2023/09/07 10:13:33;;;;;;;;;;;27.20;60.70;;;;;;5099591;28;19908;-55
2023/09/07 10:16:07;;;;;;;;;;;27.20;60.40;;;;;;5099586;28;19912;-55
2023/09/07 10:18:38;;;;;;;;;;;27.20;60.70;;;;;;5098227;28;19919;-56
2023/09/07 10:21:04;;;;;;;;;;;27.20;60.40;;;;;;5099515;28;19916;-55
2023/09/07 10:23:36;;;;;;;;;;;27.20;60.30;;;;;;5097221;28;19961;-55
2023/09/07 10:26:03;;;;;;;;;;;27.20;60.10;;;;;;5092500;28;20414;-55
2023/09/07 10:28:29;;;;;;;;;;;27.20;59.90;;;;;;5096968;28;20249;-56
2023/09/07 10:31:04;;;;;;;;;;;27.30;59.20;;;;;;5098118;28;19953;-55
2023/09/07 10:33:30;;;;;;;;;;;27.30;59.00;;;;;;5097012;28;19916;-55
2023/09/07 10:35:56;;;;;;;;;;;27.40;59.30;;;;;;5080442;28;19913;-56
2023/09/07 10:38:22;;;;;;;;;;;27.40;59.50;;;;;;5097244;28;19916;-55
2023/09/07 10:40:48;;;;;;;;;;;27.30;59.60;;;;;;5097983;28;19912;-56
2023/09/07 10:43:13;;;;;;;;;;;27.30;59.50;;;;;;5099469;28;19915;-56
2023/09/07 10:45:39;;;;;;;;;;;27.40;58.80;;;;;;5096830;28;19957;-55
2023/09/07 10:48:04;;;;;;;;;;;27.40;58.40;;;;;;5097940;28;19912;-56
2023/09/07 10:50:30;;;;;;;;;;;27.40;58.20;;;;;;5099181;28;19924;-56
2023/09/07 10:52:55;;;;;;;;;;;27.50;58.40;;;;;;5096673;28;20368;-55
2023/09/07 10:55:21;;;;;;;;;;;27.50;58.40;;;;;;5094356;28;20299;-56
2023/09/07 10:57:47;;;;;;;;;;;27.50;58.50;;;;;;5092254;28;20006;-55
2023/09/07 11:00:13;;;;;;;;;;;27.60;57.80;;;;;;5099525;28;19915;-56
2023/09/07 11:02:39;;;;;;;;;;;27.60;58.40;;;;;;5096457;28;19919;-55
2023/09/07 11:05:05;;;;;;;;;;;27.60;57.40;;;;;;5094905;28;20313;-55
2023/09/07 11:07:30;;;;;;;;;;;27.60;57.70;;;;;;5096534;28;19915;-55
2023/09/07 11:09:56;;;;;;;;;;;27.50;58.70;;;;;;5084754;28;19916;-56
2023/09/07 11:12:21;;;;;;;;;;;27.50;58.30;;;;;;5096046;28;19995;-56
2023/09/07 11:14:48;;;;;;;;;;;27.60;58.00;;;;;;5094728;28;20004;-55
2023/09/07 11:17:13;;;;;;;;;;;27.60;57.60;;;;;;5094547;28;19920;-55
2023/09/07 11:19:38;;;;;;;;;;;27.60;56.80;;;;;;5092114;28;19912;-56
2023/09/07 11:22:04;;;;;;;;;;;27.60;56.40;;;;;;5095860;28;19966;-55
2023/09/07 11:24:31;;;;;;;;;;;27.60;57.10;;;;;;5090371;28;19923;-55
2023/09/07 11:26:57;;;;;;;;;;;27.60;58.00;;;;;;5078986;28;19919;-55
2023/09/07 11:29:22;;;;;;;;;;;27.70;56.90;;;;;;5095746;28;19908;-56
2023/09/07 11:31:48;;;;;;;;;;;27.70;56.80;;;;;;5095688;28;19914;-56
2023/09/07 11:34:14;;;;;;;;;;;27.80;56.50;;;;;;5095686;28;19935;-56
2023/09/07 11:36:40;;;;;;;;;;;27.80;56.50;;;;;;5091377;28;19908;-55
2023/09/07 11:39:11;;;;;;;;;;;27.80;56.40;;;;;;5075279;28;19909;-56
2023/09/07 11:41:40;;;;;;;;;;;27.90;55.80;;;;;;5082128;28;20364;-55
2023/09/07 11:44:06;;;;;;;;;;;27.80;56.50;;;;;;5075325;28;19915;-55
2023/09/07 11:46:32;;;;;;;;;;;27.80;56.40;;;;;;5075224;28;19908;-55
2023/09/07 11:48:57;;;;;;;;;;;27.80;56.80;;;;;;5078341;28;20397;-55
2023/09/07 11:51:22;;;;;;;;;;;27.90;56.50;;;;;;5095285;28;20394;-56
2023/09/07 11:53:49;;;;;;;;;;;27.80;56.20;;;;;;5091979;28;19919;-55
2023/09/07 11:56:14;;;;;;;;;;;27.90;56.30;;;;;;5088867;28;20383;-55
2023/09/07 11:58:39;;;;;;;;;;;27.90;56.00;;;;;;5095277;28;19912;-55
2023/09/07 12:01:06;;;;;;;;;;;28.00;56.20;;;;;;5095261;28;19961;-56
2023/09/07 12:03:33;;;;;;;;;;;28.00;55.70;;;;;;5095101;28;20003;-56
2023/09/07 12:05:58;;;;;;;;;;;28.10;55.80;;;;;;5093743;28;19912;-55
2023/09/07 12:08:23;;;;;;;;;;;28.10;55.90;;;;;;5093055;28;20428;-55
2023/09/07 12:10:49;;;;;;;;;;;28.10;55.90;;;;;;5094835;28;19956;-55
2023/09/07 12:13:14;;;;;;;;;;;28.10;56.50;;;;;;5094808;28;20421;-56
2023/09/07 12:15:40;;;;;;;;;;;28.10;55.80;;;;;;5094790;28;19912;-55
2023/09/07 12:18:05;;;;;;;;;;;28.20;54.80;;;;;;5092035;28;19912;-55
2023/09/07 12:20:31;;;;;;;;;;;28.20;55.30;;;;;;5094873;28;19961;-56
2023/09/07 12:22:56;;;;;;;;;;;28.20;56.00;;;;;;5092324;28;19941;-56
2023/09/07 12:25:22;;;;;;;;;;;28.10;56.40;;;;;;5085443;28;19908;-57
2023/09/07 12:27:47;;;;;;;;;;;28.10;56.50;;;;;;5073493;28;19916;-56
2023/09/07 12:30:13;;;;;;;;;;;28.10;56.40;;;;;;5074426;28;19916;-55
2023/09/07 12:32:39;;;;;;;;;;;28.20;54.90;;;;;;5074456;28;19957;-56
2023/09/07 12:35:08;;;;;;;;;;;28.20;55.10;;;;;;5071310;28;19917;-56
2023/09/07 12:37:34;;;;;;;;;;;28.30;54.70;;;;;;5079415;28;19913;-56
2023/09/07 12:40:00;;;;;;;;;;;28.30;54.20;;;;;;5074028;28;19916;-56
2023/09/07 12:42:25;;;;;;;;;;;28.30;53.80;;;;;;5081038;28;20245;-56
2023/09/07 12:44:51;;;;;;;;;;;28.30;54.10;;;;;;5094109;28;19931;-56
2023/09/07 12:47:16;;;;;;;;;;;28.30;53.70;;;;;;5094246;28;19915;-54
2023/09/07 12:49:42;;;;;;;;;;;28.30;53.60;;;;;;5094080;28;19908;-55
2023/09/07 12:52:11;;;;;;;;;;;28.20;53.90;;;;;;5091564;28;19920;-55
2023/09/07 12:54:37;;;;;;;;;;;28.20;54.00;;;;;;5091172;28;19909;-55
2023/09/07 12:57:02;;;;;;;;;;;28.20;53.40;;;;;;5073904;28;19916;-56
2023/09/07 12:59:28;;;;;;;;;;;28.30;53.90;;;;;;5073864;28;19916;-56
2023/09/07 13:01:55;;;;;;;;;;;28.30;54.10;;;;;;5073810;28;20291;-56
2023/09/07 13:04:21;;;;;;;;;;;28.40;53.20;;;;;;5073011;28;19961;-55
2023/09/07 13:06:46;;;;;;;;;;;28.50;53.00;;;;;;5072417;28;20322;-55
2023/09/07 13:09:12;;;;;;;;;;;28.50;53.40;;;;;;5073727;28;19920;-55
2023/09/07 13:11:39;;;;;;;;;;;28.40;53.80;;;;;;5081121;28;19912;-55
2023/09/07 13:14:04;;;;;;;;;;;28.40;53.60;;;;;;5086788;28;19913;-56
2023/09/07 13:16:32;;;;;;;;;;;28.40;53.00;;;;;;5079049;28;19923;-56
2023/09/07 13:18:58;;;;;;;;;;;28.60;52.20;;;;;;5091559;28;19912;-55
2023/09/07 13:21:23;;;;;;;;;;;28.60;52.20;;;;;;5091469;28;19938;-56
2023/09/07 13:23:49;;;;;;;;;;;28.60;52.40;;;;;;5091557;28;19916;-56
2023/09/07 13:26:14;;;;;;;;;;;28.60;52.60;;;;;;5073436;28;19913;-55
2023/09/07 13:28:40;;;;;;;;;;;28.60;52.20;;;;;;5073065;28;19959;-55
2023/09/07 13:31:06;;;;;;;;;;;28.60;51.90;;;;;;5073150;28;19999;-56
2023/09/07 13:33:31;;;;;;;;;;;28.60;51.90;;;;;;5073328;28;19909;-57
2023/09/07 13:35:57;;;;;;;;;;;28.60;52.20;;;;;;5086485;28;20257;-56
2023/09/07 13:38:22;;;;;;;;;;;28.60;52.10;;;;;;5091250;28;19919;-56
2023/09/07 13:40:48;;;;;;;;;;;28.50;52.80;;;;;;5087644;28;20356;-55
2023/09/07 13:43:13;;;;;;;;;;;28.50;52.10;;;;;;5093440;28;19909;-56
2023/09/07 13:45:39;;;;;;;;;;;28.60;51.70;;;;;;5093134;28;19908;-55
2023/09/07 13:48:04;;;;;;;;;;;28.60;51.30;;;;;;5093086;28;19912;-56
2023/09/07 13:50:30;;;;;;;;;;;28.60;51.60;;;;;;5090684;28;20073;-55
2023/09/07 13:52:56;;;;;;;;;;;28.60;51.50;;;;;;5078964;28;19919;-56
2023/09/07 13:55:21;;;;;;;;;;;28.60;51.90;;;;;;5072250;28;19916;-56
2023/09/07 13:57:47;;;;;;;;;;;28.50;51.30;;;;;;5072806;28;19908;-56
2023/09/07 14:00:13;;;;;;;;;;;28.60;51.20;;;;;;5079190;28;20368;-56
2023/09/07 14:02:38;;;;;;;;;;;28.70;50.60;;;;;;5093161;28;19966;-56
2023/09/07 14:05:04;;;;;;;;;;;28.70;50.00;;;;;;5093304;28;20396;-56
2023/09/07 14:07:30;;;;;;;;;;;28.70;50.30;;;;;;5089411;28;19912;-56